sensor_id;sensor_type;location;lat;lon;timestamp;P1;durP1;ratioP1;P2;durP2;ratioP2
46757;SDS011;32509;47.750;-3.396;2023-07-24T00:01:20;5.30;;;2.00;;
46757;SDS011;32509;47.750;-3.396;2023-07-24T00:03:46;4.00;;;2.00;;
46757;SDS011;32509;47.750;-3.396;2023-07-24T00:06:11;7.75;;;2.75;;
46757;SDS011;32509;47.750;-3.396;2023-07-24T00:08:37;4.28;;;1.63;;
46757;SDS011;32509;47.750;-3.396;2023-07-24T00:11:06;5.20;;;1.70;;
46757;SDS011;32509;47.750;-3.396;2023-07-24T00:13:35;4.68;;;2.20;;
46757;SDS011;32509;47.750;-3.396;2023-07-24T00:16:05;4.07;;;1.92;;
46757;SDS011;32509;47.750;-3.396;2023-07-24T00:18:32;4.13;;;1.85;;
46757;SDS011;32509;47.750;-3.396;2023-07-24T00:20:58;4.88;;;2.03;;
46757;SDS011;32509;47.750;-3.396;2023-07-24T00:23:23;11.07;;;3.20;;
46757;SDS011;32509;47.750;-3.396;2023-07-24T00:25:49;4.47;;;1.98;;
46757;SDS011;32509;47.750;-3.396;2023-07-24T00:28:15;9.10;;;2.58;;
46757;SDS011;32509;47.750;-3.396;2023-07-24T00:30:41;3.88;;;1.52;;
46757;SDS011;32509;47.750;-3.396;2023-07-24T00:33:07;5.18;;;2.10;;
46757;SDS011;32509;47.750;-3.396;2023-07-24T00:35:34;2.40;;;1.77;;
46757;SDS011;32509;47.750;-3.396;2023-07-24T00:38:00;5.05;;;1.85;;
46757;SDS011;32509;47.750;-3.396;2023-07-24T00:40:25;15.85;;;2.83;;
46757;SDS011;32509;47.750;-3.396;2023-07-24T00:42:51;3.63;;;2.00;;
46757;SDS011;32509;47.750;-3.396;2023-07-24T00:45:17;6.40;;;3.00;;
46757;SDS011;32509;47.750;-3.396;2023-07-24T00:47:43;5.55;;;2.15;;
46757;SDS011;32509;47.750;-3.396;2023-07-24T00:50:09;4.00;;;1.85;;
46757;SDS011;32509;47.750;-3.396;2023-07-24T00:52:36;4.97;;;2.00;;
46757;SDS011;32509;47.750;-3.396;2023-07-24T00:55:02;4.80;;;2.03;;
46757;SDS011;32509;47.750;-3.396;2023-07-24T00:57:29;7.45;;;2.33;;
46757;SDS011;32509;47.750;-3.396;2023-07-24T00:59:55;6.53;;;1.60;;
46757;SDS011;32509;47.750;-3.396;2023-07-24T01:02:21;5.15;;;1.90;;
46757;SDS011;32509;47.750;-3.396;2023-07-24T01:04:46;9.90;;;2.20;;
46757;SDS011;32509;47.750;-3.396;2023-07-24T01:07:12;4.82;;;2.22;;
46757;SDS011;32509;47.750;-3.396;2023-07-24T01:09:38;6.88;;;1.98;;
46757;SDS011;32509;47.750;-3.396;2023-07-24T01:14:42;3.42;;;2.13;;
46757;SDS011;32509;47.750;-3.396;2023-07-24T01:17:14;6.35;;;2.38;;
46757;SDS011;32509;47.750;-3.396;2023-07-24T01:19:47;4.68;;;2.72;;
46757;SDS011;32509;47.750;-3.396;2023-07-24T01:27:45;3.58;;;1.70;;
46757;SDS011;32509;47.750;-3.396;2023-07-24T01:30:13;4.32;;;2.30;;
46757;SDS011;32509;47.750;-3.396;2023-07-24T01:32:41;12.45;;;3.05;;
46757;SDS011;32509;47.750;-3.396;2023-07-24T01:35:07;4.38;;;1.67;;
46757;SDS011;32509;47.750;-3.396;2023-07-24T01:37:33;9.57;;;3.22;;
46757;SDS011;32509;47.750;-3.396;2023-07-24T01:40:00;4.13;;;2.42;;
46757;SDS011;32509;47.750;-3.396;2023-07-24T01:42:27;6.15;;;2.05;;
46757;SDS011;32509;47.750;-3.396;2023-07-24T01:44:54;7.50;;;2.38;;
46757;SDS011;32509;47.750;-3.396;2023-07-24T01:47:20;5.78;;;2.25;;
46757;SDS011;32509;47.750;-3.396;2023-07-24T01:49:47;4.80;;;1.95;;
46757;SDS011;32509;47.750;-3.396;2023-07-24T01:52:13;6.63;;;1.70;;
46757;SDS011;32509;47.750;-3.396;2023-07-24T01:54:39;6.50;;;1.90;;
46757;SDS011;32509;47.750;-3.396;2023-07-24T01:57:05;8.25;;;2.15;;
46757;SDS011;32509;47.750;-3.396;2023-07-24T01:59:30;6.70;;;2.05;;
46757;SDS011;32509;47.750;-3.396;2023-07-24T02:01:56;6.25;;;2.20;;
46757;SDS011;32509;47.750;-3.396;2023-07-24T02:04:22;8.52;;;2.33;;
46757;SDS011;32509;47.750;-3.396;2023-07-24T02:06:51;5.18;;;1.92;;
46757;SDS011;32509;47.750;-3.396;2023-07-24T02:09:19;6.55;;;2.65;;
46757;SDS011;32509;47.750;-3.396;2023-07-24T02:11:45;5.65;;;2.53;;
46757;SDS011;32509;47.750;-3.396;2023-07-24T02:14:12;6.72;;;2.08;;
46757;SDS011;32509;47.750;-3.396;2023-07-24T02:16:38;3.92;;;2.10;;
46757;SDS011;32509;47.750;-3.396;2023-07-24T02:19:05;3.33;;;1.95;;
46757;SDS011;32509;47.750;-3.396;2023-07-24T02:21:31;7.90;;;2.47;;
46757;SDS011;32509;47.750;-3.396;2023-07-24T02:23:57;4.57;;;1.92;;
46757;SDS011;32509;47.750;-3.396;2023-07-24T02:26:23;6.65;;;2.38;;
46757;SDS011;32509;47.750;-3.396;2023-07-24T02:28:49;10.25;;;2.25;;
46757;SDS011;32509;47.750;-3.396;2023-07-24T02:31:14;3.88;;;1.92;;
46757;SDS011;32509;47.750;-3.396;2023-07-24T02:33:41;4.70;;;2.20;;
46757;SDS011;32509;47.750;-3.396;2023-07-24T02:36:07;8.68;;;2.95;;
46757;SDS011;32509;47.750;-3.396;2023-07-24T02:38:33;11.90;;;3.50;;
46757;SDS011;32509;47.750;-3.396;2023-07-24T02:40:58;7.57;;;2.30;;
46757;SDS011;32509;47.750;-3.396;2023-07-24T02:43:24;8.77;;;3.03;;
46757;SDS011;32509;47.750;-3.396;2023-07-24T02:45:50;8.95;;;1.90;;
46757;SDS011;32509;47.750;-3.396;2023-07-24T02:48:19;6.28;;;1.65;;
46757;SDS011;32509;47.750;-3.396;2023-07-24T02:50:47;5.90;;;2.38;;
46757;SDS011;32509;47.750;-3.396;2023-07-24T02:53:13;4.95;;;1.88;;
46757;SDS011;32509;47.750;-3.396;2023-07-24T02:55:41;5.13;;;1.85;;
46757;SDS011;32509;47.750;-3.396;2023-07-24T02:58:08;8.45;;;1.73;;
46757;SDS011;32509;47.750;-3.396;2023-07-24T03:00:34;12.82;;;2.17;;
46757;SDS011;32509;47.750;-3.396;2023-07-24T03:03:00;5.68;;;2.38;;
46757;SDS011;32509;47.750;-3.396;2023-07-24T03:05:25;7.50;;;2.20;;
46757;SDS011;32509;47.750;-3.396;2023-07-24T03:07:51;8.75;;;2.22;;
46757;SDS011;32509;47.750;-3.396;2023-07-24T03:10:17;8.57;;;3.03;;
46757;SDS011;32509;47.750;-3.396;2023-07-24T03:12:43;7.03;;;2.60;;
46757;SDS011;32509;47.750;-3.396;2023-07-24T03:15:08;6.03;;;1.70;;
46757;SDS011;32509;47.750;-3.396;2023-07-24T03:17:34;4.88;;;2.38;;
46757;SDS011;32509;47.750;-3.396;2023-07-24T03:20:07;7.53;;;2.45;;
46757;SDS011;32509;47.750;-3.396;2023-07-24T03:22:34;5.38;;;1.75;;
46757;SDS011;32509;47.750;-3.396;2023-07-24T03:25:00;4.50;;;2.05;;
46757;SDS011;32509;47.750;-3.396;2023-07-24T03:27:26;6.43;;;2.03;;
46757;SDS011;32509;47.750;-3.396;2023-07-24T03:29:52;11.40;;;2.72;;
46757;SDS011;32509;47.750;-3.396;2023-07-24T03:32:17;7.57;;;1.90;;
46757;SDS011;32509;47.750;-3.396;2023-07-24T03:34:43;8.20;;;2.45;;
46757;SDS011;32509;47.750;-3.396;2023-07-24T03:37:09;8.38;;;2.65;;
46757;SDS011;32509;47.750;-3.396;2023-07-24T03:39:35;8.90;;;2.85;;
46757;SDS011;32509;47.750;-3.396;2023-07-24T03:42:01;7.05;;;1.98;;
46757;SDS011;32509;47.750;-3.396;2023-07-24T03:44:27;6.78;;;2.55;;
46757;SDS011;32509;47.750;-3.396;2023-07-24T03:46:53;9.63;;;2.50;;
46757;SDS011;32509;47.750;-3.396;2023-07-24T03:49:19;10.40;;;2.47;;
46757;SDS011;32509;47.750;-3.396;2023-07-24T03:51:45;14.60;;;4.32;;
46757;SDS011;32509;47.750;-3.396;2023-07-24T03:54:10;6.45;;;3.35;;
46757;SDS011;32509;47.750;-3.396;2023-07-24T03:56:36;7.43;;;2.88;;
46757;SDS011;32509;47.750;-3.396;2023-07-24T03:59:02;5.57;;;2.58;;
46757;SDS011;32509;47.750;-3.396;2023-07-24T04:01:28;6.72;;;2.05;;
46757;SDS011;32509;47.750;-3.396;2023-07-24T04:03:53;7.97;;;2.22;;
46757;SDS011;32509;47.750;-3.396;2023-07-24T04:06:19;7.35;;;2.17;;
46757;SDS011;32509;47.750;-3.396;2023-07-24T04:08:45;8.82;;;2.40;;
46757;SDS011;32509;47.750;-3.396;2023-07-24T04:11:11;6.40;;;2.70;;
46757;SDS011;32509;47.750;-3.396;2023-07-24T04:13:36;8.57;;;2.95;;
46757;SDS011;32509;47.750;-3.396;2023-07-24T04:16:02;11.40;;;3.05;;
46757;SDS011;32509;47.750;-3.396;2023-07-24T04:18:28;10.50;;;3.10;;
46757;SDS011;32509;47.750;-3.396;2023-07-24T04:20:55;6.15;;;2.25;;
46757;SDS011;32509;47.750;-3.396;2023-07-24T04:23:21;6.85;;;3.40;;
46757;SDS011;32509;47.750;-3.396;2023-07-24T04:25:49;6.32;;;2.17;;
46757;SDS011;32509;47.750;-3.396;2023-07-24T04:28:15;13.27;;;3.88;;
46757;SDS011;32509;47.750;-3.396;2023-07-24T04:30:41;5.13;;;1.92;;
46757;SDS011;32509;47.750;-3.396;2023-07-24T04:33:07;7.63;;;3.33;;
46757;SDS011;32509;47.750;-3.396;2023-07-24T04:35:32;9.52;;;2.10;;
46757;SDS011;32509;47.750;-3.396;2023-07-24T04:37:58;6.45;;;2.22;;
46757;SDS011;32509;47.750;-3.396;2023-07-24T04:40:24;11.88;;;2.15;;
46757;SDS011;32509;47.750;-3.396;2023-07-24T04:42:50;6.88;;;2.65;;
46757;SDS011;32509;47.750;-3.396;2023-07-24T04:45:16;5.47;;;2.10;;
46757;SDS011;32509;47.750;-3.396;2023-07-24T04:47:41;4.00;;;1.77;;
46757;SDS011;32509;47.750;-3.396;2023-07-24T04:50:07;4.97;;;1.80;;
46757;SDS011;32509;47.750;-3.396;2023-07-24T04:52:33;10.50;;;3.45;;
46757;SDS011;32509;47.750;-3.396;2023-07-24T04:54:59;6.35;;;1.90;;
46757;SDS011;32509;47.750;-3.396;2023-07-24T04:57:25;8.82;;;2.53;;
46757;SDS011;32509;47.750;-3.396;2023-07-24T04:59:50;6.13;;;2.20;;
46757;SDS011;32509;47.750;-3.396;2023-07-24T05:02:16;9.45;;;3.13;;
46757;SDS011;32509;47.750;-3.396;2023-07-24T05:04:42;11.98;;;2.38;;
46757;SDS011;32509;47.750;-3.396;2023-07-24T05:07:07;7.78;;;2.17;;
46757;SDS011;32509;47.750;-3.396;2023-07-24T05:09:33;6.13;;;2.40;;
46757;SDS011;32509;47.750;-3.396;2023-07-24T05:11:59;6.35;;;2.20;;
46757;SDS011;32509;47.750;-3.396;2023-07-24T05:14:25;10.85;;;2.30;;
46757;SDS011;32509;47.750;-3.396;2023-07-24T05:16:50;8.98;;;2.83;;
46757;SDS011;32509;47.750;-3.396;2023-07-24T05:19:16;8.07;;;1.90;;
46757;SDS011;32509;47.750;-3.396;2023-07-24T05:21:42;7.82;;;2.83;;
46757;SDS011;32509;47.750;-3.396;2023-07-24T05:24:08;7.20;;;2.85;;
46757;SDS011;32509;47.750;-3.396;2023-07-24T05:26:33;12.20;;;2.78;;
46757;SDS011;32509;47.750;-3.396;2023-07-24T05:28:59;6.88;;;2.53;;
46757;SDS011;32509;47.750;-3.396;2023-07-24T05:31:25;6.93;;;2.60;;
46757;SDS011;32509;47.750;-3.396;2023-07-24T05:33:51;7.43;;;2.10;;
46757;SDS011;32509;47.750;-3.396;2023-07-24T05:36:16;8.25;;;3.33;;
46757;SDS011;32509;47.750;-3.396;2023-07-24T05:38:42;5.88;;;1.92;;
46757;SDS011;32509;47.750;-3.396;2023-07-24T05:41:08;6.07;;;2.00;;
46757;SDS011;32509;47.750;-3.396;2023-07-24T05:43:34;11.68;;;3.88;;
46757;SDS011;32509;47.750;-3.396;2023-07-24T05:45:59;6.93;;;1.83;;
46757;SDS011;32509;47.750;-3.396;2023-07-24T05:48:25;6.90;;;2.17;;
46757;SDS011;32509;47.750;-3.396;2023-07-24T05:50:51;9.27;;;2.50;;
46757;SDS011;32509;47.750;-3.396;2023-07-24T05:53:17;13.70;;;3.55;;
46757;SDS011;32509;47.750;-3.396;2023-07-24T05:55:43;8.50;;;2.65;;
46757;SDS011;32509;47.750;-3.396;2023-07-24T05:58:09;8.00;;;2.15;;
46757;SDS011;32509;47.750;-3.396;2023-07-24T06:00:35;8.30;;;2.13;;
46757;SDS011;32509;47.750;-3.396;2023-07-24T06:03:01;5.15;;;1.67;;
46757;SDS011;32509;47.750;-3.396;2023-07-24T06:05:28;6.40;;;2.13;;
46757;SDS011;32509;47.750;-3.396;2023-07-24T06:07:54;8.43;;;2.67;;
46757;SDS011;32509;47.750;-3.396;2023-07-24T06:10:19;6.30;;;2.70;;
46757;SDS011;32509;47.750;-3.396;2023-07-24T06:12:46;9.50;;;2.97;;
46757;SDS011;32509;47.750;-3.396;2023-07-24T06:15:12;5.85;;;2.17;;
46757;SDS011;32509;47.750;-3.396;2023-07-24T06:17:38;6.03;;;1.60;;
46757;SDS011;32509;47.750;-3.396;2023-07-24T06:20:04;6.63;;;1.95;;
46757;SDS011;32509;47.750;-3.396;2023-07-24T06:22:31;5.97;;;3.00;;
46757;SDS011;32509;47.750;-3.396;2023-07-24T06:24:57;7.15;;;2.45;;
46757;SDS011;32509;47.750;-3.396;2023-07-24T06:27:23;5.35;;;2.05;;
46757;SDS011;32509;47.750;-3.396;2023-07-24T06:29:48;5.45;;;2.05;;
46757;SDS011;32509;47.750;-3.396;2023-07-24T06:32:14;8.55;;;2.38;;
46757;SDS011;32509;47.750;-3.396;2023-07-24T06:34:40;14.27;;;3.25;;
46757;SDS011;32509;47.750;-3.396;2023-07-24T06:37:06;12.07;;;3.67;;
46757;SDS011;32509;47.750;-3.396;2023-07-24T06:39:31;18.25;;;3.40;;
46757;SDS011;32509;47.750;-3.396;2023-07-24T06:41:58;16.10;;;2.92;;
46757;SDS011;32509;47.750;-3.396;2023-07-24T06:44:24;10.57;;;3.70;;
46757;SDS011;32509;47.750;-3.396;2023-07-24T06:46:50;9.82;;;2.78;;
46757;SDS011;32509;47.750;-3.396;2023-07-24T06:49:15;9.95;;;2.97;;
46757;SDS011;32509;47.750;-3.396;2023-07-24T06:51:41;7.43;;;2.30;;
46757;SDS011;32509;47.750;-3.396;2023-07-24T06:54:07;10.02;;;2.20;;
46757;SDS011;32509;47.750;-3.396;2023-07-24T06:56:33;6.32;;;1.80;;
46757;SDS011;32509;47.750;-3.396;2023-07-24T06:58:59;8.68;;;2.47;;
46757;SDS011;32509;47.750;-3.396;2023-07-24T07:01:24;6.47;;;2.30;;
46757;SDS011;32509;47.750;-3.396;2023-07-24T07:03:50;7.82;;;2.05;;
46757;SDS011;32509;47.750;-3.396;2023-07-24T07:06:16;11.20;;;2.28;;
46757;SDS011;32509;47.750;-3.396;2023-07-24T07:08:42;7.43;;;2.30;;
46757;SDS011;32509;47.750;-3.396;2023-07-24T07:11:08;4.13;;;1.80;;
46757;SDS011;32509;47.750;-3.396;2023-07-24T07:13:33;4.75;;;1.70;;
46757;SDS011;32509;47.750;-3.396;2023-07-24T07:15:59;6.00;;;1.77;;
46757;SDS011;32509;47.750;-3.396;2023-07-24T07:18:25;7.32;;;3.13;;
46757;SDS011;32509;47.750;-3.396;2023-07-24T07:20:51;8.73;;;2.63;;
46757;SDS011;32509;47.750;-3.396;2023-07-24T07:23:18;9.27;;;3.13;;
46757;SDS011;32509;47.750;-3.396;2023-07-24T07:25:44;7.57;;;2.55;;
46757;SDS011;32509;47.750;-3.396;2023-07-24T07:28:14;9.10;;;2.65;;
46757;SDS011;32509;47.750;-3.396;2023-07-24T07:30:41;10.95;;;2.78;;
46757;SDS011;32509;47.750;-3.396;2023-07-24T07:33:07;8.40;;;2.95;;
46757;SDS011;32509;47.750;-3.396;2023-07-24T07:35:34;11.73;;;3.75;;
46757;SDS011;32509;47.750;-3.396;2023-07-24T07:38:00;10.60;;;2.70;;
46757;SDS011;32509;47.750;-3.396;2023-07-24T07:40:27;9.90;;;3.35;;
46757;SDS011;32509;47.750;-3.396;2023-07-24T07:42:53;11.57;;;2.85;;
46757;SDS011;32509;47.750;-3.396;2023-07-24T07:45:20;13.52;;;3.13;;
46757;SDS011;32509;47.750;-3.396;2023-07-24T07:47:46;16.25;;;4.65;;
46757;SDS011;32509;47.750;-3.396;2023-07-24T07:50:12;15.68;;;3.38;;
46757;SDS011;32509;47.750;-3.396;2023-07-24T07:52:38;13.45;;;4.57;;
46757;SDS011;32509;47.750;-3.396;2023-07-24T07:55:04;16.98;;;3.63;;
46757;SDS011;32509;47.750;-3.396;2023-07-24T07:57:36;18.70;;;3.38;;
46757;SDS011;32509;47.750;-3.396;2023-07-24T08:00:03;13.82;;;3.60;;
46757;SDS011;32509;47.750;-3.396;2023-07-24T08:02:33;13.07;;;2.65;;
46757;SDS011;32509;47.750;-3.396;2023-07-24T08:04:59;15.48;;;3.80;;
46757;SDS011;32509;47.750;-3.396;2023-07-24T08:07:25;18.92;;;5.03;;
46757;SDS011;32509;47.750;-3.396;2023-07-24T08:09:51;26.35;;;3.75;;
46757;SDS011;32509;47.750;-3.396;2023-07-24T08:12:16;19.35;;;4.40;;
46757;SDS011;32509;47.750;-3.396;2023-07-24T08:14:42;8.57;;;2.97;;
46757;SDS011;32509;47.750;-3.396;2023-07-24T08:17:08;8.85;;;3.10;;
46757;SDS011;32509;47.750;-3.396;2023-07-24T08:19:34;7.63;;;3.28;;
46757;SDS011;32509;47.750;-3.396;2023-07-24T08:21:59;11.82;;;3.03;;
46757;SDS011;32509;47.750;-3.396;2023-07-24T08:24:25;12.50;;;3.22;;
46757;SDS011;32509;47.750;-3.396;2023-07-24T08:26:51;11.52;;;3.20;;
46757;SDS011;32509;47.750;-3.396;2023-07-24T08:29:17;12.73;;;3.42;;
46757;SDS011;32509;47.750;-3.396;2023-07-24T08:31:42;12.85;;;4.15;;
46757;SDS011;32509;47.750;-3.396;2023-07-24T08:34:08;11.65;;;3.53;;
46757;SDS011;32509;47.750;-3.396;2023-07-24T08:36:34;8.32;;;2.72;;
46757;SDS011;32509;47.750;-3.396;2023-07-24T08:39:00;13.30;;;4.30;;
46757;SDS011;32509;47.750;-3.396;2023-07-24T08:41:25;9.85;;;2.85;;
46757;SDS011;32509;47.750;-3.396;2023-07-24T08:43:54;9.90;;;2.40;;
46757;SDS011;32509;47.750;-3.396;2023-07-24T08:46:20;11.52;;;2.63;;
46757;SDS011;32509;47.750;-3.396;2023-07-24T08:48:47;9.68;;;2.55;;
46757;SDS011;32509;47.750;-3.396;2023-07-24T08:51:13;15.25;;;2.85;;
46757;SDS011;32509;47.750;-3.396;2023-07-24T08:53:43;8.27;;;2.38;;
46757;SDS011;32509;47.750;-3.396;2023-07-24T08:56:10;6.57;;;2.38;;
46757;SDS011;32509;47.750;-3.396;2023-07-24T08:58:39;7.05;;;1.75;;
46757;SDS011;32509;47.750;-3.396;2023-07-24T09:01:06;5.00;;;2.22;;
46757;SDS011;32509;47.750;-3.396;2023-07-24T09:03:33;7.70;;;2.35;;
46757;SDS011;32509;47.750;-3.396;2023-07-24T09:05:59;10.45;;;3.65;;
46757;SDS011;32509;47.750;-3.396;2023-07-24T09:08:29;15.68;;;2.85;;
46757;SDS011;32509;47.750;-3.396;2023-07-24T09:10:56;8.68;;;3.22;;
46757;SDS011;32509;47.750;-3.396;2023-07-24T09:13:22;6.60;;;2.25;;
46757;SDS011;32509;47.750;-3.396;2023-07-24T09:15:48;8.10;;;2.00;;
46757;SDS011;32509;47.750;-3.396;2023-07-24T09:18:14;6.78;;;2.10;;
46757;SDS011;32509;47.750;-3.396;2023-07-24T09:20:41;10.75;;;2.83;;
46757;SDS011;32509;47.750;-3.396;2023-07-24T09:23:09;7.80;;;2.17;;
46757;SDS011;32509;47.750;-3.396;2023-07-24T09:25:36;7.32;;;1.98;;
46757;SDS011;32509;47.750;-3.396;2023-07-24T09:28:09;8.55;;;2.42;;
46757;SDS011;32509;47.750;-3.396;2023-07-24T09:30:40;9.60;;;2.38;;
46757;SDS011;32509;47.750;-3.396;2023-07-24T09:33:06;7.28;;;2.67;;
46757;SDS011;32509;47.750;-3.396;2023-07-24T09:35:32;13.15;;;3.45;;
46757;SDS011;32509;47.750;-3.396;2023-07-24T09:38:05;4.88;;;2.60;;
46757;SDS011;32509;47.750;-3.396;2023-07-24T09:40:42;10.85;;;2.88;;
46757;SDS011;32509;47.750;-3.396;2023-07-24T09:45:48;4.97;;;3.35;;
46757;SDS011;32509;47.750;-3.396;2023-07-24T09:48:15;8.38;;;3.33;;
46757;SDS011;32509;47.750;-3.396;2023-07-24T09:50:44;3.53;;;2.40;;
46757;SDS011;32509;47.750;-3.396;2023-07-24T09:53:15;8.52;;;3.83;;
46757;SDS011;32509;47.750;-3.396;2023-07-24T09:55:47;10.27;;;2.63;;
46757;SDS011;32509;47.750;-3.396;2023-07-24T09:58:20;7.35;;;2.97;;
46757;SDS011;32509;47.750;-3.396;2023-07-24T10:00:47;4.40;;;2.30;;
46757;SDS011;32509;47.750;-3.396;2023-07-24T10:03:14;7.13;;;2.88;;
46757;SDS011;32509;47.750;-3.396;2023-07-24T10:05:41;5.65;;;2.05;;
46757;SDS011;32509;47.750;-3.396;2023-07-24T10:08:10;5.30;;;2.80;;
46757;SDS011;32509;47.750;-3.396;2023-07-24T10:10:36;8.27;;;2.72;;
46757;SDS011;32509;47.750;-3.396;2023-07-24T10:13:03;7.10;;;2.63;;
46757;SDS011;32509;47.750;-3.396;2023-07-24T10:15:29;4.55;;;2.80;;
46757;SDS011;32509;47.750;-3.396;2023-07-24T10:18:02;6.53;;;3.28;;
46757;SDS011;32509;47.750;-3.396;2023-07-24T10:20:34;7.57;;;2.30;;
46757;SDS011;32509;47.750;-3.396;2023-07-24T10:23:08;9.63;;;2.65;;
46757;SDS011;32509;47.750;-3.396;2023-07-24T10:25:40;8.85;;;2.72;;
46757;SDS011;32509;47.750;-3.396;2023-07-24T10:28:09;7.22;;;2.50;;
46757;SDS011;32509;47.750;-3.396;2023-07-24T10:30:37;5.97;;;2.03;;
46757;SDS011;32509;47.750;-3.396;2023-07-24T10:33:07;3.88;;;2.42;;
46757;SDS011;32509;47.750;-3.396;2023-07-24T10:35:41;5.50;;;3.33;;
46757;SDS011;32509;47.750;-3.396;2023-07-24T10:38:16;4.97;;;2.03;;
46757;SDS011;32509;47.750;-3.396;2023-07-24T10:40:44;5.07;;;2.30;;
46757;SDS011;32509;47.750;-3.396;2023-07-24T10:43:17;4.88;;;2.03;;
46757;SDS011;32509;47.750;-3.396;2023-07-24T10:45:52;5.32;;;2.42;;
46757;SDS011;32509;47.750;-3.396;2023-07-24T10:48:19;4.10;;;1.77;;
46757;SDS011;32509;47.750;-3.396;2023-07-24T10:50:48;5.03;;;2.35;;
46757;SDS011;32509;47.750;-3.396;2023-07-24T10:53:15;2.15;;;1.75;;
46757;SDS011;32509;47.750;-3.396;2023-07-24T10:55:43;2.85;;;2.05;;
46757;SDS011;32509;47.750;-3.396;2023-07-24T10:58:09;6.28;;;2.10;;
46757;SDS011;32509;47.750;-3.396;2023-07-24T11:00:35;3.38;;;1.92;;
46757;SDS011;32509;47.750;-3.396;2023-07-24T11:03:01;6.05;;;2.67;;
46757;SDS011;32509;47.750;-3.396;2023-07-24T11:05:26;5.93;;;2.63;;
46757;SDS011;32509;47.750;-3.396;2023-07-24T11:07:52;4.13;;;1.80;;
46757;SDS011;32509;47.750;-3.396;2023-07-24T11:10:20;3.88;;;1.80;;
46757;SDS011;32509;47.750;-3.396;2023-07-24T11:12:47;6.00;;;2.88;;
46757;SDS011;32509;47.750;-3.396;2023-07-24T11:15:15;1.88;;;1.60;;
46757;SDS011;32509;47.750;-3.396;2023-07-24T11:17:41;2.10;;;1.92;;
46757;SDS011;32509;47.750;-3.396;2023-07-24T11:20:11;4.78;;;1.92;;
46757;SDS011;32509;47.750;-3.396;2023-07-24T11:22:39;3.90;;;1.67;;
46757;SDS011;32509;47.750;-3.396;2023-07-24T11:25:06;3.33;;;2.03;;
46757;SDS011;32509;47.750;-3.396;2023-07-24T11:27:33;5.15;;;3.00;;
46757;SDS011;32509;47.750;-3.396;2023-07-24T11:30:02;3.80;;;1.88;;
46757;SDS011;32509;47.750;-3.396;2023-07-24T11:32:30;4.53;;;2.05;;
46757;SDS011;32509;47.750;-3.396;2023-07-24T11:34:55;1.98;;;1.50;;
46757;SDS011;32509;47.750;-3.396;2023-07-24T11:37:22;4.35;;;2.22;;
46757;SDS011;32509;47.750;-3.396;2023-07-24T11:39:57;6.95;;;1.88;;
46757;SDS011;32509;47.750;-3.396;2023-07-24T11:42:27;5.82;;;2.65;;
46757;SDS011;32509;47.750;-3.396;2023-07-24T11:44:53;4.25;;;1.95;;
46757;SDS011;32509;47.750;-3.396;2023-07-24T11:47:19;6.43;;;2.17;;
46757;SDS011;32509;47.750;-3.396;2023-07-24T11:49:55;3.88;;;1.77;;
46757;SDS011;32509;47.750;-3.396;2023-07-24T11:52:22;3.95;;;2.38;;
46757;SDS011;32509;47.750;-3.396;2023-07-24T11:54:55;5.57;;;2.05;;
46757;SDS011;32509;47.750;-3.396;2023-07-24T11:57:26;2.92;;;1.48;;
46757;SDS011;32509;47.750;-3.396;2023-07-24T11:59:53;3.67;;;2.10;;
46757;SDS011;32509;47.750;-3.396;2023-07-24T12:02:19;5.82;;;1.70;;
46757;SDS011;32509;47.750;-3.396;2023-07-24T12:04:45;4.85;;;1.90;;
46757;SDS011;32509;47.750;-3.396;2023-07-24T12:07:10;5.43;;;2.28;;
46757;SDS011;32509;47.750;-3.396;2023-07-24T12:09:36;3.58;;;1.75;;
46757;SDS011;32509;47.750;-3.396;2023-07-24T12:12:03;6.63;;;1.67;;
46757;SDS011;32509;47.750;-3.396;2023-07-24T12:14:32;3.42;;;1.38;;
46757;SDS011;32509;47.750;-3.396;2023-07-24T12:17:01;3.42;;;1.63;;
46757;SDS011;32509;47.750;-3.396;2023-07-24T12:19:27;5.72;;;1.85;;
46757;SDS011;32509;47.750;-3.396;2023-07-24T12:21:53;4.47;;;1.40;;
46757;SDS011;32509;47.750;-3.396;2023-07-24T12:24:19;5.80;;;1.48;;
46757;SDS011;32509;47.750;-3.396;2023-07-24T12:26:45;4.28;;;1.77;;
46757;SDS011;32509;47.750;-3.396;2023-07-24T12:29:10;1.65;;;1.48;;
46757;SDS011;32509;47.750;-3.396;2023-07-24T12:31:36;4.30;;;1.40;;
46757;SDS011;32509;47.750;-3.396;2023-07-24T12:34:02;3.92;;;2.70;;
46757;SDS011;32509;47.750;-3.396;2023-07-24T12:36:28;3.33;;;1.80;;
46757;SDS011;32509;47.750;-3.396;2023-07-24T12:38:54;7.28;;;1.90;;
46757;SDS011;32509;47.750;-3.396;2023-07-24T12:41:19;4.68;;;1.45;;
46757;SDS011;32509;47.750;-3.396;2023-07-24T12:43:45;7.07;;;2.78;;
46757;SDS011;32509;47.750;-3.396;2023-07-24T12:46:11;2.90;;;1.60;;
46757;SDS011;32509;47.750;-3.396;2023-07-24T12:48:37;4.38;;;1.65;;
46757;SDS011;32509;47.750;-3.396;2023-07-24T12:51:02;4.15;;;1.73;;
46757;SDS011;32509;47.750;-3.396;2023-07-24T12:53:28;1.65;;;1.25;;
46757;SDS011;32509;47.750;-3.396;2023-07-24T12:55:54;2.90;;;1.42;;
46757;SDS011;32509;47.750;-3.396;2023-07-24T12:58:20;5.32;;;1.90;;
46757;SDS011;32509;47.750;-3.396;2023-07-24T13:00:46;3.35;;;1.83;;
46757;SDS011;32509;47.750;-3.396;2023-07-24T13:03:11;4.00;;;1.40;;
46757;SDS011;32509;47.750;-3.396;2023-07-24T13:05:37;4.20;;;1.30;;
46757;SDS011;32509;47.750;-3.396;2023-07-24T13:08:03;5.45;;;1.65;;
46757;SDS011;32509;47.750;-3.396;2023-07-24T13:10:29;7.20;;;1.40;;
46757;SDS011;32509;47.750;-3.396;2023-07-24T13:12:55;3.58;;;1.50;;
46757;SDS011;32509;47.750;-3.396;2023-07-24T13:15:21;3.35;;;1.75;;
46757;SDS011;32509;47.750;-3.396;2023-07-24T13:17:47;2.85;;;1.73;;
46757;SDS011;32509;47.750;-3.396;2023-07-24T13:20:14;3.58;;;1.33;;
46757;SDS011;32509;47.750;-3.396;2023-07-24T13:22:39;6.28;;;1.58;;
46757;SDS011;32509;47.750;-3.396;2023-07-24T13:25:08;4.50;;;2.10;;
46757;SDS011;32509;47.750;-3.396;2023-07-24T13:27:34;2.58;;;1.40;;
46757;SDS011;32509;47.750;-3.396;2023-07-24T13:30:00;3.97;;;1.60;;
46757;SDS011;32509;47.750;-3.396;2023-07-24T13:32:25;12.13;;;1.83;;
46757;SDS011;32509;47.750;-3.396;2023-07-24T13:34:55;144.18;;;11.93;;
46757;SDS011;32509;47.750;-3.396;2023-07-24T13:37:21;155.95;;;14.35;;
46757;SDS011;32509;47.750;-3.396;2023-07-24T13:39:49;40.63;;;4.57;;
46757;SDS011;32509;47.750;-3.396;2023-07-24T13:42:16;21.52;;;4.43;;
46757;SDS011;32509;47.750;-3.396;2023-07-24T13:44:41;16.92;;;3.45;;
46757;SDS011;32509;47.750;-3.396;2023-07-24T13:47:07;38.30;;;4.50;;
46757;SDS011;32509;47.750;-3.396;2023-07-24T13:49:33;12.65;;;2.63;;
46757;SDS011;32509;47.750;-3.396;2023-07-24T13:51:59;21.92;;;3.20;;
46757;SDS011;32509;47.750;-3.396;2023-07-24T13:54:24;8.48;;;2.47;;
46757;SDS011;32509;47.750;-3.396;2023-07-24T13:56:50;30.33;;;5.47;;
46757;SDS011;32509;47.750;-3.396;2023-07-24T13:59:16;8.27;;;3.50;;
46757;SDS011;32509;47.750;-3.396;2023-07-24T14:01:42;19.05;;;4.43;;
46757;SDS011;32509;47.750;-3.396;2023-07-24T14:04:08;6.20;;;2.25;;
46757;SDS011;32509;47.750;-3.396;2023-07-24T14:06:33;7.47;;;3.35;;
46757;SDS011;32509;47.750;-3.396;2023-07-24T14:08:59;9.05;;;3.13;;
46757;SDS011;32509;47.750;-3.396;2023-07-24T14:11:25;11.80;;;2.70;;
46757;SDS011;32509;47.750;-3.396;2023-07-24T14:13:52;14.40;;;2.60;;
46757;SDS011;32509;47.750;-3.396;2023-07-24T14:16:18;9.95;;;2.88;;
46757;SDS011;32509;47.750;-3.396;2023-07-24T14:18:43;4.22;;;2.47;;
46757;SDS011;32509;47.750;-3.396;2023-07-24T14:21:09;2.65;;;1.50;;
46757;SDS011;32509;47.750;-3.396;2023-07-24T14:23:35;9.50;;;3.00;;
46757;SDS011;32509;47.750;-3.396;2023-07-24T14:26:00;3.80;;;2.20;;
46757;SDS011;32509;47.750;-3.396;2023-07-24T14:28:26;4.70;;;1.60;;
46757;SDS011;32509;47.750;-3.396;2023-07-24T14:30:52;5.82;;;2.20;;
46757;SDS011;32509;47.750;-3.396;2023-07-24T14:33:18;3.80;;;2.08;;
46757;SDS011;32509;47.750;-3.396;2023-07-24T14:35:44;2.78;;;2.30;;
46757;SDS011;32509;47.750;-3.396;2023-07-24T14:38:10;4.90;;;1.55;;